Time;durP1;ratioP1;P1;durP2;ratioP2;P2;SDS_P1;SDS_P2;PMS_P1;PMS_P2;Temp;Humidity;BMP_temperature;BMP_pressure;BME280_temperature;BME280_humidity;BME280_pressure;Samples;Min_cycle;Max_cycle;Signal;HPM_P1;HPM_P2
2022/12/09 00:02:20;;;;;;;51.15;32.67;;;2.90;99.90;;;;;;5103752;28;20028;-64
2022/12/09 00:04:45;;;;;;;46.20;29.02;;;3.00;99.90;;;;;;5100418;28;20026;-64
2022/12/09 00:07:11;;;;;;;42.13;25.73;;;3.00;99.90;;;;;;5097884;28;20019;-64
2022/12/09 00:09:37;;;;;;;37.70;23.63;;;3.10;99.90;;;;;;5118896;27;20031;-64
2022/12/09 00:12:02;;;;;;;33.35;21.45;;;3.20;99.90;;;;;;5103485;28;20067;-64
2022/12/09 00:14:28;;;;;;;38.53;24.55;;;3.20;99.90;;;;;;5104558;28;20122;-64
2022/12/09 00:16:54;;;;;;;38.55;24.30;;;3.30;99.90;;;;;;5102863;28;20076;-64
2022/12/09 00:19:20;;;;;;;41.53;25.70;;;3.30;99.90;;;;;;5105449;28;20059;-64
2022/12/09 00:21:45;;;;;;;36.72;23.98;;;3.30;99.90;;;;;;5103083;28;20101;-64
2022/12/09 00:24:13;;;;;;;34.97;21.67;;;3.30;99.90;;;;;;5103449;28;20057;-64
2022/12/09 00:26:39;;;;;;;32.97;21.38;;;3.40;99.90;;;;;;5091994;28;20020;-64
2022/12/09 00:29:04;;;;;;;28.35;18.35;;;3.40;99.90;;;;;;5103350;28;20055;-64
2022/12/09 00:31:33;;;;;;;31.00;20.00;;;3.40;99.90;;;;;;5095487;28;20058;-64
2022/12/09 00:34:01;;;;;;;26.95;17.27;;;3.40;99.90;;;;;;5097872;28;20052;-64
2022/12/09 00:36:28;;;;;;;29.73;18.95;;;3.40;99.90;;;;;;5105866;28;20045;-64
2022/12/09 00:38:55;;;;;;;29.38;18.52;;;3.50;99.90;;;;;;5100219;28;20024;-64
2022/12/09 00:41:21;;;;;;;27.58;17.30;;;3.50;99.90;;;;;;5086790;28;20035;-64
2022/12/09 00:43:46;;;;;;;29.10;18.88;;;3.50;99.90;;;;;;5086594;28;20023;-64
2022/12/09 00:46:12;;;;;;;29.60;18.67;;;3.50;99.90;;;;;;5105152;28;20024;-64
2022/12/09 00:48:38;;;;;;;29.65;19.15;;;3.50;99.90;;;;;;5106969;28;20016;-64
2022/12/09 00:51:05;;;;;;;30.55;17.80;;;3.50;99.90;;;;;;5101071;28;20020;-64
2022/12/09 00:53:31;;;;;;;27.90;17.95;;;3.50;99.90;;;;;;5105243;28;20438;-64
2022/12/09 00:55:57;;;;;;;29.30;19.15;;;3.60;99.90;;;;;;5096514;28;20113;-64
2022/12/09 00:58:22;;;;;;;28.33;18.15;;;3.60;99.90;;;;;;5102347;28;20563;-64
2022/12/09 01:00:48;;;;;;;29.10;18.25;;;3.60;99.90;;;;;;5101352;28;20401;-64
2022/12/09 01:03:15;;;;;;;28.35;17.85;;;3.60;99.90;;;;;;5107497;28;20095;-64
2022/12/09 01:05:41;;;;;;;26.65;16.60;;;3.60;99.90;;;;;;5084336;28;20019;-64
2022/12/09 01:08:08;;;;;;;27.98;18.50;;;3.70;99.90;;;;;;5108573;28;20031;-64
2022/12/09 01:10:34;;;;;;;30.48;19.65;;;3.70;99.90;;;;;;5110045;28;20132;-64
2022/12/09 01:13:00;;;;;;;29.55;19.05;;;3.70;99.90;;;;;;5107979;28;20027;-64
2022/12/09 01:15:26;;;;;;;30.88;19.30;;;3.60;99.90;;;;;;5096040;28;20020;-64
2022/12/09 01:17:51;;;;;;;25.55;16.88;;;3.70;99.90;;;;;;5103149;28;20076;-64
2022/12/09 01:20:17;;;;;;;30.55;19.88;;;3.70;99.90;;;;;;5106779;28;20392;-64
2022/12/09 01:22:42;;;;;;;28.17;19.23;;;3.70;99.90;;;;;;5081736;28;20388;-64
2022/12/09 01:25:08;;;;;;;29.00;18.88;;;3.70;99.90;;;;;;5086918;28;20028;-64
2022/12/09 01:27:34;;;;;;;26.52;17.38;;;3.70;99.90;;;;;;5108652;28;20031;-64
2022/12/09 01:29:59;;;;;;;25.48;17.05;;;3.70;99.90;;;;;;5106699;28;20024;-64
2022/12/09 01:32:25;;;;;;;29.58;19.45;;;3.70;99.90;;;;;;5099915;28;20113;-64
2022/12/09 01:34:50;;;;;;;27.92;18.60;;;3.70;99.90;;;;;;5078553;28;20048;-64
2022/12/09 01:37:16;;;;;;;34.85;23.00;;;3.70;99.90;;;;;;5100247;28;20020;-64
2022/12/09 01:39:41;;;;;;;32.17;22.00;;;3.70;99.90;;;;;;5101131;28;20042;-64
2022/12/09 01:42:17;;;;;;;29.98;19.95;;;3.70;99.90;;;;;;5084910;28;20032;-64
2022/12/09 01:45:29;;;;;;;29.25;19.55;;;3.70;99.90;;;;;;5102994;28;20020;-64
2022/12/09 01:48:17;;;;;;;30.27;20.75;;;3.70;99.90;;;;;;5100356;28;20489;-64
2022/12/09 01:50:53;;;;;;;38.17;26.75;;;3.70;99.90;;;;;;5097388;28;20036;-64
2022/12/09 01:53:23;;;;;;;54.53;36.13;;;3.70;99.90;;;;;;5098003;28;20027;-64
2022/12/09 01:55:49;;;;;;;51.58;33.67;;;3.50;99.90;;;;;;5096400;28;20540;-64
2022/12/09 01:58:16;;;;;;;57.13;36.00;;;3.40;99.90;;;;;;5099601;28;20103;-64
2022/12/09 02:00:42;;;;;;;54.83;35.08;;;3.40;99.90;;;;;;5100654;28;20494;-64
2022/12/09 02:03:08;;;;;;;53.35;34.58;;;3.40;99.90;;;;;;5103124;28;20071;-64
2022/12/09 02:05:34;;;;;;;57.92;35.50;;;3.30;99.90;;;;;;5119176;27;20493;-64
2022/12/09 02:08:00;;;;;;;56.72;36.08;;;3.30;99.90;;;;;;5111019;28;20023;-64
2022/12/09 02:10:26;;;;;;;59.53;35.70;;;3.30;99.90;;;;;;5105854;28;20358;-64
2022/12/09 02:13:08;;;;;;;58.50;35.13;;;3.20;99.90;;;;;;5103702;28;20372;-64
2022/12/09 02:15:42;;;;;;;57.60;34.67;;;3.20;99.90;;;;;;5104811;28;20049;-64
2022/12/09 02:18:37;;;;;;;59.50;36.50;;;3.20;99.90;;;;;;5101540;28;20024;-64
2022/12/09 02:21:06;;;;;;;57.25;36.15;;;3.20;99.90;;;;;;5083748;28;20030;-64
2022/12/09 02:23:41;;;;;;;59.83;36.70;;;3.20;99.90;;;;;;5103376;27;20919;-64
2022/12/09 02:26:16;;;;;;;58.45;36.55;;;3.10;99.90;;;;;;5110669;28;20027;-64
2022/12/09 02:29:02;;;;;;;53.05;34.10;;;3.10;99.90;;;;;;5097683;28;20503;-64
2022/12/09 02:31:56;;;;;;;53.58;32.38;;;3.10;99.90;;;;;;5104846;28;20042;-64
2022/12/09 02:34:28;;;;;;;47.42;30.83;;;3.10;99.90;;;;;;5100175;28;20486;-64
2022/12/09 02:37:15;;;;;;;45.53;29.05;;;3.10;99.90;;;;;;5106093;28;20373;-64
2022/12/09 02:39:59;;;;;;;47.28;30.27;;;3.20;99.90;;;;;;5100052;28;20027;-64
2022/12/09 02:42:29;;;;;;;55.97;34.97;;;3.20;99.90;;;;;;5103713;28;20060;-64
2022/12/09 02:44:57;;;;;;;54.53;35.42;;;3.10;99.90;;;;;;5112423;27;20031;-64
2022/12/09 02:47:26;;;;;;;58.47;37.20;;;3.10;99.90;;;;;;5109621;27;20106;-64
2022/12/09 02:49:57;;;;;;;57.85;36.70;;;3.10;99.90;;;;;;5110637;27;20023;-64
2022/12/09 02:52:23;;;;;;;61.33;38.33;;;3.10;99.90;;;;;;5106863;27;20031;-64
2022/12/09 02:54:49;;;;;;;62.40;39.03;;;3.00;99.90;;;;;;5099544;28;20024;-64
2022/12/09 02:57:19;;;;;;;67.00;39.97;;;2.90;99.90;;;;;;5087445;28;20533;-64
2022/12/09 02:59:45;;;;;;;65.78;39.35;;;2.90;99.90;;;;;;5096479;28;20145;-64
2022/12/09 03:02:27;;;;;;;61.75;37.70;;;2.90;99.90;;;;;;5110100;27;20046;-64
2022/12/09 03:05:25;;;;;;;64.55;38.63;;;2.90;99.90;;;;;;5077761;28;20519;-64
2022/12/09 03:08:13;;;;;;;65.55;39.50;;;2.80;99.90;;;;;;5101056;28;20412;-64
2022/12/09 03:10:41;;;;;;;66.80;39.38;;;2.80;99.90;;;;;;5099744;28;20028;-64
2022/12/09 03:13:30;;;;;;;69.55;39.88;;;2.80;99.90;;;;;;5101952;28;20034;-64
2022/12/09 03:16:06;;;;;;;61.88;37.10;;;2.80;99.90;;;;;;5101994;28;20027;-65
2022/12/09 03:18:32;;;;;;;71.38;40.30;;;2.80;99.90;;;;;;5100332;27;20024;-64
2022/12/09 03:21:00;;;;;;;64.13;39.03;;;2.80;99.90;;;;;;5099063;28;20032;-64
2022/12/09 03:23:29;;;;;;;59.35;36.67;;;2.90;99.90;;;;;;5074017;28;20043;-64
2022/12/09 03:25:57;;;;;;;66.38;39.40;;;2.90;99.90;;;;;;5098900;28;20030;-64
2022/12/09 03:28:27;;;;;;;66.35;42.08;;;2.90;99.90;;;;;;5100399;28;20109;-64
2022/12/09 03:30:54;;;;;;;69.05;41.80;;;2.80;99.90;;;;;;5098831;28;20020;-64
2022/12/09 03:33:23;;;;;;;67.00;40.55;;;2.80;99.90;;;;;;5101484;27;20040;-64
2022/12/09 03:35:52;;;;;;;66.57;41.03;;;2.80;99.90;;;;;;5102113;27;20024;-64
2022/12/09 03:38:20;;;;;;;67.22;41.38;;;2.80;99.90;;;;;;5091139;28;20032;-64
2022/12/09 03:40:52;;;;;;;66.28;41.13;;;2.80;99.90;;;;;;5091876;28;20035;-64
2022/12/09 03:43:26;;;;;;;67.38;40.28;;;2.70;99.90;;;;;;5076042;28;20027;-64
2022/12/09 03:45:54;;;;;;;61.20;37.50;;;2.70;99.90;;;;;;5089902;28;20019;-64
2022/12/09 03:48:21;;;;;;;67.28;41.55;;;2.80;99.90;;;;;;5095085;28;20078;-64
2022/12/09 03:51:00;;;;;;;70.13;40.03;;;2.70;99.90;;;;;;5075189;28;20499;-64
2022/12/09 03:53:35;;;;;;;69.95;41.10;;;2.80;99.90;;;;;;5097321;27;20028;-64
2022/12/09 03:56:17;;;;;;;67.60;40.40;;;2.70;99.90;;;;;;5082459;28;20032;-64
2022/12/09 03:58:45;;;;;;;71.25;39.75;;;2.70;99.90;;;;;;5102361;28;20015;-64
2022/12/09 04:01:11;;;;;;;66.65;38.97;;;2.70;99.90;;;;;;5090680;28;20160;-64
2022/12/09 04:03:37;;;;;;;66.85;40.13;;;2.70;99.90;;;;;;5090716;28;20101;-64
2022/12/09 04:06:03;;;;;;;65.78;40.17;;;2.70;99.90;;;;;;5092059;28;20471;-64
2022/12/09 04:08:28;;;;;;;72.13;40.90;;;2.70;99.90;;;;;;5088675;28;20031;-64
2022/12/09 04:10:54;;;;;;;68.15;39.50;;;2.70;99.90;;;;;;5115230;27;20015;-64
2022/12/09 04:13:19;;;;;;;62.80;38.50;;;2.70;99.90;;;;;;5088508;28;20197;-64
2022/12/09 04:15:45;;;;;;;65.53;37.20;;;2.70;99.90;;;;;;5088053;28;20070;-64
2022/12/09 04:18:10;;;;;;;67.10;38.78;;;2.80;99.90;;;;;;5094242;28;20101;-65
2022/12/09 04:20:36;;;;;;;51.88;31.60;;;2.80;99.90;;;;;;5080702;28;20028;-64
2022/12/09 04:23:01;;;;;;;58.97;35.25;;;2.80;99.90;;;;;;5088498;28;20032;-64
2022/12/09 04:25:27;;;;;;;56.97;34.85;;;2.90;99.90;;;;;;5093637;28;20170;-64
2022/12/09 04:27:53;;;;;;;69.97;38.75;;;2.90;99.90;;;;;;5094103;28;20479;-64
2022/12/09 04:30:18;;;;;;;68.03;38.63;;;2.90;99.90;;;;;;5092772;28;20034;-64
2022/12/09 04:32:44;;;;;;;65.82;38.75;;;2.80;99.90;;;;;;5093605;28;20016;-64
2022/12/09 04:35:09;;;;;;;71.55;39.78;;;2.70;99.90;;;;;;5061192;28;20067;-64
2022/12/09 04:37:36;;;;;;;62.17;36.80;;;2.70;99.90;;;;;;5048285;28;20021;-64
2022/12/09 04:40:05;;;;;;;53.58;32.80;;;2.70;99.90;;;;;;5053947;28;20051;-64
2022/12/09 04:42:31;;;;;;;55.30;30.77;;;2.70;99.90;;;;;;5051400;28;20112;-64
2022/12/09 04:44:57;;;;;;;45.35;26.75;;;2.80;99.90;;;;;;5050190;28;20112;-64
2022/12/09 04:47:22;;;;;;;40.33;23.40;;;2.90;99.90;;;;;;5057968;28;20024;-64
2022/12/09 04:49:48;;;;;;;37.70;23.13;;;2.90;99.90;;;;;;5053939;28;20132;-64
2022/12/09 04:52:16;;;;;;;40.58;23.58;;;3.00;99.90;;;;;;5050911;28;20017;-64
2022/12/09 04:54:41;;;;;;;40.25;22.42;;;3.10;99.90;;;;;;5053863;28;20020;-64
2022/12/09 04:57:07;;;;;;;42.90;24.48;;;3.10;99.90;;;;;;5035706;28;20048;-64
2022/12/09 04:59:33;;;;;;;38.75;23.05;;;3.10;99.90;;;;;;5048406;28;20024;-64
2022/12/09 05:01:58;;;;;;;35.28;19.83;;;3.10;99.90;;;;;;5055059;28;20486;-64
2022/12/09 05:04:24;;;;;;;31.58;19.60;;;3.20;99.90;;;;;;5053934;28;20298;-64
2022/12/09 05:06:49;;;;;;;31.80;17.85;;;3.20;99.90;;;;;;5046560;28;20338;-64
2022/12/09 05:09:15;;;;;;;31.05;17.50;;;3.20;99.90;;;;;;5051683;28;20021;-64
2022/12/09 05:11:40;;;;;;;28.98;17.65;;;3.30;99.90;;;;;;5055409;28;20024;-64
2022/12/09 05:14:06;;;;;;;24.73;15.07;;;3.30;99.90;;;;;;5051166;28;20486;-64
2022/12/09 05:16:32;;;;;;;28.55;16.33;;;3.30;99.90;;;;;;5050948;28;20404;-64
2022/12/09 05:18:58;;;;;;;32.50;18.02;;;3.30;99.90;;;;;;5051341;28;20502;-64
2022/12/09 05:21:24;;;;;;;29.63;16.67;;;3.20;99.90;;;;;;5057538;28;20029;-64
2022/12/09 05:23:49;;;;;;;26.52;16.88;;;3.30;99.90;;;;;;5053390;28;20017;-64
2022/12/09 05:26:18;;;;;;;47.50;27.38;;;3.30;99.90;;;;;;5053596;28;20100;-64
2022/12/09 05:28:44;;;;;;;47.67;28.02;;;3.20;99.90;;;;;;5052728;28;20031;-64
2022/12/09 05:31:13;;;;;;;50.33;28.75;;;3.10;99.90;;;;;;5055158;28;20100;-64
2022/12/09 05:33:40;;;;;;;54.83;31.58;;;3.10;99.90;;;;;;5067899;28;20070;-64
2022/12/09 05:36:17;;;;;;;57.25;33.35;;;3.00;99.90;;;;;;5094493;28;20381;-64
2022/12/09 05:38:43;;;;;;;53.72;32.45;;;2.90;99.90;;;;;;5093587;28;20032;-64
2022/12/09 05:41:09;;;;;;;57.03;33.42;;;2.90;99.90;;;;;;5097110;28;20062;-64
2022/12/09 05:43:35;;;;;;;59.22;35.50;;;2.80;99.90;;;;;;5097013;28;20024;-64
2022/12/09 05:46:02;;;;;;;58.40;34.55;;;2.70;99.90;;;;;;5096711;28;20482;-64
2022/12/09 05:48:28;;;;;;;57.65;35.20;;;2.70;99.90;;;;;;5098176;28;20473;-64
2022/12/09 05:51:05;;;;;;;65.13;38.47;;;2.60;99.90;;;;;;5094233;28;20038;-64
2022/12/09 05:53:31;;;;;;;64.07;38.40;;;2.60;99.90;;;;;;5098400;27;20784;-64
2022/12/09 05:55:57;;;;;;;64.50;37.65;;;2.50;99.90;;;;;;5096846;28;20474;-64
2022/12/09 05:58:23;;;;;;;62.63;36.70;;;2.50;99.90;;;;;;5091108;28;20031;-64
2022/12/09 06:00:49;;;;;;;62.67;38.53;;;2.50;99.90;;;;;;5090972;28;20497;-64
2022/12/09 06:03:14;;;;;;;66.30;39.08;;;2.50;99.90;;;;;;5094058;28;20086;-64
2022/12/09 06:05:40;;;;;;;64.10;37.65;;;2.50;99.90;;;;;;5096791;28;20100;-64
2022/12/09 06:08:06;;;;;;;64.47;37.38;;;2.50;99.90;;;;;;5091225;28;20374;-64
2022/12/09 06:10:31;;;;;;;62.05;37.50;;;2.40;99.90;;;;;;5093699;28;20497;-64
2022/12/09 06:12:57;;;;;;;68.00;38.17;;;2.40;99.90;;;;;;5093917;28;20074;-64
2022/12/09 06:15:23;;;;;;;67.95;39.28;;;2.40;99.90;;;;;;5096045;28;20097;-64
2022/12/09 06:17:49;;;;;;;69.00;39.67;;;2.40;99.90;;;;;;5099582;28;20024;-64
2022/12/09 06:20:16;;;;;;;66.80;38.25;;;2.40;99.90;;;;;;5099895;28;20147;-64
2022/12/09 06:22:41;;;;;;;66.90;39.10;;;2.40;99.90;;;;;;5090994;28;20024;-64
2022/12/09 06:25:07;;;;;;;69.75;39.22;;;2.40;99.90;;;;;;5073022;28;20503;-64
2022/12/09 06:27:33;;;;;;;65.47;37.25;;;2.40;99.90;;;;;;5093710;28;20469;-64
2022/12/09 06:29:58;;;;;;;59.28;35.97;;;2.40;99.90;;;;;;5075129;28;20025;-64
2022/12/09 06:32:24;;;;;;;63.92;36.78;;;2.30;99.90;;;;;;5093227;28;20024;-64
2022/12/09 06:34:49;;;;;;;57.55;31.63;;;2.40;99.90;;;;;;5092228;28;20048;-64
2022/12/09 06:37:15;;;;;;;45.35;26.77;;;2.40;99.90;;;;;;5091289;27;20024;-64
2022/12/09 06:39:41;;;;;;;44.00;25.15;;;2.40;99.90;;;;;;5111061;28;20043;-64
2022/12/09 06:42:06;;;;;;;39.20;23.55;;;2.50;99.90;;;;;;5112526;28;20522;-64
2022/12/09 06:44:32;;;;;;;39.00;23.55;;;2.50;99.90;;;;;;5106271;28;20024;-64
2022/12/09 06:46:58;;;;;;;39.72;22.85;;;2.50;99.90;;;;;;5082308;28;20055;-64
2022/12/09 06:49:26;;;;;;;33.53;20.48;;;2.50;99.90;;;;;;5103882;28;20423;-64
2022/12/09 06:51:51;;;;;;;38.85;21.85;;;2.50;99.90;;;;;;5107334;27;20015;-64
2022/12/09 06:54:17;;;;;;;34.92;20.95;;;2.50;99.90;;;;;;5122994;27;20031;-64
2022/12/09 06:56:42;;;;;;;35.90;20.85;;;2.40;99.90;;;;;;5104257;27;20042;-64
2022/12/09 06:59:09;;;;;;;36.65;20.70;;;2.40;99.90;;;;;;5110905;28;20035;-64
2022/12/09 07:01:36;;;;;;;35.35;21.00;;;2.40;99.90;;;;;;5075753;28;20027;-64
2022/12/09 07:04:03;;;;;;;46.42;25.50;;;2.40;99.90;;;;;;5106304;28;20024;-64
2022/12/09 07:06:37;;;;;;;47.13;25.98;;;2.30;99.90;;;;;;5093541;28;20032;-64
2022/12/09 07:09:06;;;;;;;40.25;23.40;;;2.30;99.90;;;;;;5094628;28;20033;-64
2022/12/09 07:11:32;;;;;;;36.13;22.00;;;2.30;99.90;;;;;;5093577;28;20101;-64
2022/12/09 07:13:58;;;;;;;37.30;21.90;;;2.20;99.90;;;;;;5093936;28;20028;-64
2022/12/09 07:16:23;;;;;;;36.25;21.20;;;2.20;99.90;;;;;;5094263;28;20031;-64
2022/12/09 07:18:49;;;;;;;36.67;21.75;;;2.20;99.90;;;;;;5074997;28;20024;-64
2022/12/09 07:21:17;;;;;;;36.00;21.02;;;2.20;99.90;;;;;;5094370;28;20117;-64
2022/12/09 07:23:43;;;;;;;32.70;18.92;;;2.10;99.90;;;;;;5093977;28;20070;-64
2022/12/09 07:26:10;;;;;;;33.70;20.52;;;2.10;99.90;;;;;;5094429;28;20024;-64
2022/12/09 07:28:38;;;;;;;35.80;20.35;;;2.10;99.90;;;;;;5093947;28;20078;-64
2022/12/09 07:31:04;;;;;;;34.65;20.13;;;2.10;99.90;;;;;;5093549;28;20051;-64
2022/12/09 07:33:29;;;;;;;39.63;22.20;;;2.00;99.90;;;;;;5093348;28;20493;-64
2022/12/09 07:35:58;;;;;;;35.30;21.63;;;2.00;99.90;;;;;;5093803;28;20031;-64
2022/12/09 07:38:25;;;;;;;36.75;21.55;;;2.00;99.90;;;;;;5095228;28;20016;-64
2022/12/09 07:40:51;;;;;;;34.03;20.08;;;2.00;99.90;;;;;;5092652;28;20381;-64
2022/12/09 07:43:17;;;;;;;35.75;20.77;;;2.00;99.90;;;;;;5096563;28;20049;-64
2022/12/09 07:45:43;;;;;;;37.72;20.63;;;2.00;99.90;;;;;;5102366;28;20407;-64
2022/12/09 07:48:09;;;;;;;36.22;20.65;;;2.00;99.90;;;;;;5104908;28;20028;-64
2022/12/09 07:50:36;;;;;;;39.10;20.17;;;2.00;99.90;;;;;;5109463;28;20149;-64
2022/12/09 07:53:01;;;;;;;37.08;20.35;;;2.00;99.90;;;;;;5109398;27;20031;-64
2022/12/09 07:55:27;;;;;;;40.13;22.17;;;2.00;99.90;;;;;;5111574;28;20016;-64
2022/12/09 07:57:52;;;;;;;35.80;19.63;;;2.00;99.90;;;;;;5109773;28;20030;-64
2022/12/09 08:00:19;;;;;;;33.53;19.05;;;2.00;99.90;;;;;;5109050;28;20019;-64
2022/12/09 08:02:44;;;;;;;34.60;21.00;;;2.00;99.90;;;;;;5108259;28;20099;-64
2022/12/09 08:05:10;;;;;;;35.78;20.88;;;2.10;99.90;;;;;;5112467;28;20107;-64
2022/12/09 08:07:35;;;;;;;36.13;19.98;;;2.00;99.90;;;;;;5111554;28;20026;-64
2022/12/09 08:10:01;;;;;;;36.08;21.42;;;2.10;99.90;;;;;;5104171;28;20020;-64
2022/12/09 08:12:26;;;;;;;34.90;19.88;;;2.10;99.90;;;;;;5094352;28;20028;-64
2022/12/09 08:14:52;;;;;;;47.92;27.35;;;2.10;99.90;;;;;;5109871;28;20115;-64
2022/12/09 08:17:18;;;;;;;44.88;25.00;;;2.10;99.90;;;;;;5093930;28;20034;-64
2022/12/09 08:19:43;;;;;;;52.53;26.67;;;2.10;99.90;;;;;;5110609;28;20047;-64
2022/12/09 08:22:09;;;;;;;55.50;30.23;;;2.10;99.90;;;;;;5105798;28;20024;-64
2022/12/09 08:24:34;;;;;;;56.05;29.17;;;2.00;99.90;;;;;;5109024;28;20020;-64
2022/12/09 08:27:00;;;;;;;65.65;33.40;;;2.10;99.90;;;;;;5108021;28;20375;-64
2022/12/09 08:29:26;;;;;;;66.60;35.08;;;2.10;99.90;;;;;;5110462;27;20557;-64
2022/12/09 08:31:51;;;;;;;66.63;35.20;;;2.00;99.90;;;;;;5082471;28;20028;-64
2022/12/09 08:34:17;;;;;;;65.07;34.03;;;2.00;99.90;;;;;;5108261;28;20046;-64
2022/12/09 08:36:43;;;;;;;63.20;33.15;;;2.00;99.90;;;;;;5102486;28;20016;-64
2022/12/09 08:39:10;;;;;;;57.25;31.77;;;2.00;99.90;;;;;;5090613;28;20028;-64
2022/12/09 08:41:37;;;;;;;53.10;28.17;;;2.10;99.90;;;;;;5097529;28;20020;-64
2022/12/09 08:44:15;;;;;;;53.47;25.30;;;2.20;99.90;;;;;;5089678;28;20503;-64
2022/12/09 08:46:46;;;;;;;37.67;20.88;;;2.30;99.90;;;;;;5089772;28;20340;-64
2022/12/09 08:49:13;;;;;;;35.67;20.67;;;2.40;99.90;;;;;;5090067;28;20020;-64
2022/12/09 08:51:38;;;;;;;32.47;18.40;;;2.60;99.90;;;;;;5093868;28;20339;-64
2022/12/09 08:54:04;;;;;;;31.17;17.63;;;2.70;99.90;;;;;;5103294;28;20028;-64
2022/12/09 08:56:30;;;;;;;28.00;16.75;;;2.80;99.90;;;;;;5072865;28;20021;-65
2022/12/09 08:58:56;;;;;;;32.20;17.13;;;2.90;99.90;;;;;;5092427;28;20035;-65
2022/12/09 09:01:24;;;;;;;31.52;17.00;;;3.00;99.90;;;;;;5099861;28;20031;-64
2022/12/09 09:03:50;;;;;;;26.90;16.10;;;3.10;99.90;;;;;;5107749;28;20114;-64
2022/12/09 09:06:17;;;;;;;29.25;17.95;;;3.20;99.90;;;;;;5105227;28;20111;-64
2022/12/09 09:08:43;;;;;;;29.50;18.15;;;3.20;99.90;;;;;;5109931;28;20015;-64
2022/12/09 09:11:17;;;;;;;26.88;15.73;;;3.20;99.90;;;;;;5097850;28;20031;-64
2022/12/09 09:13:45;;;;;;;28.00;16.45;;;3.30;99.90;;;;;;5101863;28;20019;-64
2022/12/09 09:16:16;;;;;;;27.45;16.02;;;3.20;99.90;;;;;;5098835;28;20384;-64
2022/12/09 09:18:42;;;;;;;26.17;16.23;;;3.30;99.90;;;;;;5107573;28;20072;-64
2022/12/09 09:21:10;;;;;;;28.15;16.48;;;3.30;99.90;;;;;;5104894;28;20107;-65
2022/12/09 09:23:37;;;;;;;31.30;17.48;;;3.40;99.90;;;;;;5111377;28;20097;-64
2022/12/09 09:26:02;;;;;;;28.17;16.73;;;3.50;99.90;;;;;;5108862;28;20053;-64
2022/12/09 09:28:28;;;;;;;26.55;16.70;;;3.50;99.90;;;;;;5109677;28;20373;-64
2022/12/09 09:30:58;;;;;;;31.63;17.38;;;3.60;99.90;;;;;;5101743;28;20409;-65
2022/12/09 09:33:24;;;;;;;27.65;16.48;;;3.70;99.90;;;;;;5109539;28;20043;-64
2022/12/09 09:36:00;;;;;;;26.95;16.88;;;3.80;99.90;;;;;;5112551;28;20050;-64
2022/12/09 09:38:27;;;;;;;30.10;17.10;;;3.90;99.90;;;;;;5098805;28;20024;-64
2022/12/09 09:40:53;;;;;;;34.95;21.10;;;4.00;99.90;;;;;;5096989;28;20017;-65
2022/12/09 09:43:23;;;;;;;50.42;29.00;;;4.20;99.90;;;;;;5101061;28;20419;-64
2022/12/09 09:45:49;;;;;;;;;;;4.20;99.90;;;;;;5111740;28;20019;-64
2022/12/09 09:48:22;;;;;;;37.58;20.60;;;4.00;99.90;;;;;;5113147;28;19966;-64
2022/12/09 09:51:15;;;;;;;31.65;18.48;;;4.10;99.90;;;;;;5102211;28;20027;-64
2022/12/09 09:53:41;;;;;;;29.95;17.52;;;4.60;99.90;;;;;;5098083;28;20081;-64
2022/12/09 09:57:23;;;;;;;42.60;23.33;;;4.90;99.90;;;;;;5106885;28;20031;-65
2022/12/09 10:00:16;;;;;;;51.95;28.10;;;5.30;99.90;;;;;;4973572;28;20092;-64
2022/12/09 10:03:11;;;;;;;45.80;26.70;;;5.40;99.90;;;;;;4973112;28;20022;-64
2022/12/09 10:05:51;;;;;;;37.20;20.83;;;5.30;99.90;;;;;;5077701;28;20039;-64
2022/12/09 10:08:48;;;;;;;47.00;25.80;;;5.60;99.90;;;;;;5094746;28;20024;-65
2022/12/09 10:11:21;;;;;;;40.55;23.10;;;6.00;99.90;;;;;;5094299;28;20024;-63
2022/12/09 10:13:52;;;;;;;45.65;25.00;;;6.20;99.90;;;;;;5095844;28;20028;-63
2022/12/09 10:16:31;;;;;;;41.10;23.38;;;6.50;99.90;;;;;;5094939;28;20028;-63
2022/12/09 10:19:00;;;;;;;40.80;23.38;;;6.40;99.90;;;;;;5100765;28;21476;-63
2022/12/09 10:21:27;;;;;;;33.60;20.10;;;6.70;99.90;;;;;;5104303;28;20542;-64
2022/12/09 10:23:54;;;;;;;29.90;17.60;;;7.20;99.90;;;;;;5099408;28;20462;-64
2022/12/09 10:26:25;;;;;;;33.15;19.05;;;8.10;99.90;;;;;;5075885;28;20021;-63
2022/12/09 10:29:02;;;;;;;34.70;20.60;;;8.30;98.80;;;;;;5094519;28;20496;-64
2022/12/09 10:31:28;;;;;;;33.08;21.52;;;8.40;97.20;;;;;;5097102;28;20020;-64
2022/12/09 10:33:53;;;;;;;37.35;21.95;;;7.90;96.60;;;;;;5094156;28;20055;-63
2022/12/09 10:36:23;;;;;;;35.75;19.98;;;7.30;95.70;;;;;;5097032;28;20027;-64
2022/12/09 10:38:49;;;;;;;37.22;21.67;;;6.80;96.50;;;;;;5076076;28;20031;-64
2022/12/09 10:44:38;;;;;;;40.38;23.60;;;6.00;97.00;;;;;;5094840;28;20027;-63
2022/12/09 10:47:24;;;;;;;38.67;21.67;;;5.40;97.50;;;;;;5091312;28;20036;-63
2022/12/09 10:49:52;;;;;;;36.22;20.23;;;4.90;98.00;;;;;;5093836;28;20071;-63
2022/12/09 10:52:28;;;;;;;33.42;19.67;;;4.70;99.00;;;;;;5107551;27;20027;-63
2022/12/09 10:54:54;;;;;;;33.67;19.88;;;5.00;99.40;;;;;;5100683;27;20016;-63
2022/12/09 10:57:26;;;;;;;36.05;21.15;;;4.90;99.40;;;;;;5094022;28;20094;-64
2022/12/09 11:00:18;;;;;;;35.80;21.25;;;4.90;99.40;;;;;;5111433;28;20060;-63
2022/12/09 11:02:50;;;;;;;30.17;18.38;;;5.10;99.90;;;;;;5099948;28;20089;-63
2022/12/09 11:05:26;;;;;;;36.97;19.58;;;5.30;99.90;;;;;;5104753;28;20060;-64
2022/12/09 11:07:53;;;;;;;35.97;19.60;;;5.50;99.90;;;;;;5092869;28;20043;-64
2022/12/09 11:10:21;;;;;;;36.35;21.10;;;5.80;99.90;;;;;;5104069;28;20031;-63
2022/12/09 11:12:51;;;;;;;39.88;23.85;;;6.20;99.50;;;;;;5113400;28;20062;-63
2022/12/09 11:15:24;;;;;;;;;;;6.50;97.80;;;;;;5112365;27;20542;-63
2022/12/09 11:17:55;;;;;;;39.15;22.20;;;6.10;97.00;;;;;;5105653;28;19904;-63
2022/12/09 11:20:22;;;;;;;42.40;23.70;;;6.10;97.60;;;;;;5093358;28;20501;-63
2022/12/09 11:23:00;;;;;;;37.13;22.17;;;5.90;97.00;;;;;;5100282;28;20084;-64
2022/12/09 11:25:29;;;;;;;39.03;23.23;;;5.50;97.50;;;;;;5110338;28;20503;-63
2022/12/09 11:28:14;;;;;;;42.38;23.90;;;5.30;97.90;;;;;;5077437;28;20016;-63
2022/12/09 11:30:49;;;;;;;37.40;21.70;;;5.10;98.70;;;;;;5093613;28;20106;-63
2022/12/09 11:33:21;;;;;;;37.53;21.98;;;5.20;98.90;;;;;;5112045;28;20390;-63
2022/12/09 11:35:46;;;;;;;40.28;24.13;;;5.10;98.80;;;;;;5100605;28;20016;-63
2022/12/09 11:38:22;;;;;;;42.47;22.95;;;4.90;98.90;;;;;;5100662;28;20066;-63
2022/12/09 11:41:10;;;;;;;45.30;24.85;;;4.60;99.40;;;;;;5087899;28;20024;-63
2022/12/09 11:43:46;;;;;;;41.63;23.30;;;4.20;99.80;;;;;;5092732;27;20063;-63
2022/12/09 11:46:12;;;;;;;44.83;24.40;;;3.90;99.90;;;;;;5094025;28;20024;-63
2022/12/09 11:48:52;;;;;;;45.25;25.05;;;3.80;99.90;;;;;;5113204;28;20023;-63
2022/12/09 11:51:36;;;;;;;46.05;25.13;;;3.70;99.90;;;;;;5108434;28;20461;-64
2022/12/09 11:54:24;;;;;;;41.25;22.85;;;3.50;99.90;;;;;;5092393;28;20024;-63
2022/12/09 11:56:51;;;;;;;44.40;24.38;;;3.40;99.90;;;;;;5092714;28;20034;-63
2022/12/09 11:59:34;;;;;;;45.33;21.90;;;3.30;99.90;;;;;;5092715;28;20020;-63
2022/12/09 12:02:25;;;;;;;33.78;18.30;;;3.40;99.90;;;;;;5093101;28;20047;-63
2022/12/09 12:05:14;;;;;;;33.28;18.10;;;3.40;99.90;;;;;;5106193;28;20032;-63
2022/12/09 12:07:46;;;;;;;31.52;18.13;;;3.60;99.90;;;;;;5113054;28;20024;-63
2022/12/09 12:10:23;;;;;;;40.35;20.38;;;3.70;99.90;;;;;;5111277;28;20043;-63
2022/12/09 12:12:59;;;;;;;40.88;20.38;;;3.70;99.90;;;;;;5088582;28;20103;-63
2022/12/09 12:15:47;;;;;;;44.63;24.25;;;3.70;99.90;;;;;;5109335;28;20022;-63
2022/12/09 12:18:18;;;;;;;41.47;23.55;;;3.50;99.90;;;;;;5106407;28;20020;-64
2022/12/09 12:20:53;;;;;;;45.05;23.83;;;3.30;99.90;;;;;;5109490;28;20020;-63
2022/12/09 12:23:51;;;;;;;40.72;23.20;;;3.00;99.90;;;;;;5102718;28;20450;-63
2022/12/09 12:26:21;;;;;;;42.80;24.15;;;2.80;99.90;;;;;;5080250;28;20024;-63
2022/12/09 12:29:14;;;;;;;42.75;24.70;;;2.60;99.90;;;;;;5107465;28;20066;-64
2022/12/09 12:31:48;;;;;;;40.70;22.80;;;2.60;99.90;;;;;;5109044;28;20019;-64
2022/12/09 12:34:29;;;;;;;39.22;21.67;;;2.60;99.90;;;;;;5102968;28;20044;-64
2022/12/09 12:37:36;;;;;;;35.45;19.60;;;2.60;99.90;;;;;;5095034;28;20055;-64
2022/12/09 12:40:25;;;;;;;34.08;19.05;;;2.80;99.90;;;;;;5089819;28;20507;-64
2022/12/09 12:46:26;;;;;;;29.88;15.57;;;3.00;99.90;;;;;;5030996;28;20120;-63
2022/12/09 12:49:03;;;;;;;25.20;15.30;;;3.10;99.90;;;;;;5096676;28;20042;-63
2022/12/09 12:51:32;;;;;;;26.98;15.32;;;3.30;99.90;;;;;;5082042;28;20031;-63
2022/12/09 12:54:18;;;;;;;28.88;15.80;;;3.30;99.90;;;;;;5114941;28;20048;-64
2022/12/09 12:56:55;;;;;;;27.02;16.05;;;3.40;99.90;;;;;;5073600;28;20484;-63
2022/12/09 12:59:39;;;;;;;27.38;15.85;;;3.40;99.90;;;;;;5088327;28;20024;-64
2022/12/09 13:02:30;;;;;;;33.50;18.13;;;3.50;99.90;;;;;;5102640;28;20032;-63